This is the latest recevied weather packets stored in our database for station/object EA4IAJ-12. If no packets are shown the sender has not sent any weather packets the latest 10 day(s).
| Time | Temp. | Humidity | Pressure | Rain* | Wind** | Luminosity | Snow |
|---|---|---|---|---|---|---|---|
| 1787424677 | 30° C | 29% | 1023.8 hPa | - | - | - | - |
| 1787423776 | 30.56° C | 29% | 1026.3 hPa | - | - | - | - |
| 1787421975 | 32.22° C | 29% | 1032.2 hPa | - | - | - | - |
| 1787421075 | 33.33° C | 29% | 1037.7 hPa | - | - | - | - |
| 1787420177 | 33.89° C | 29% | 1039.2 hPa | - | - | - | - |
| 1787419268 | 33.33° C | 30% | 1037.6 hPa | - | - | - | - |
| 1787418368 | 32.78° C | 30% | 1036.1 hPa | - | - | - | - |
| 1787417467 | 32.22° C | 30% | 1034 hPa | - | - | - | - |
| 1787416567 | 32.22° C | 30% | 1034.1 hPa | - | - | - | - |
| 1787415666 | 32.78° C | 30% | 1036.1 hPa | - | - | - | - |
| 1787414766 | 31.67° C | 30% | 1031.2 hPa | - | - | - | - |
| 1787413878 | 33.33° C | 30% | 1039 hPa | - | - | - | - |
| 1787412977 | 32.78° C | 30% | 1035.5 hPa | - | - | - | - |
| 1787412077 | 35° C | 31% | 1044.7 hPa | - | - | - | - |
| 1787411176 | 34.44° C | 31% | 1044.5 hPa | - | - | - | - |
| 1787410276 | 33.33° C | 31% | 1039 hPa | - | - | - | - |
| 1787409375 | 35.56° C | 32% | 1048.3 hPa | - | - | - | - |
| 1787408475 | 35.56° C | 32% | 1048.7 hPa | - | - | - | - |
| 1787407574 | 36.67° C | 33% | 1053.8 hPa | - | - | - | - |
| 1787406673 | 35° C | 33% | 1047.5 hPa | - | - | - | - |
| 1787405773 | 34.44° C | 33% | 1046 hPa | - | - | - | - |
| 1787404872 | 33.89° C | 33% | 1043 hPa | - | - | - | - |
| 1787403971 | 36.67° C | 35% | 1056.9 hPa | - | - | - | - |
| 1787403071 | 36.67° C | 36% | 1056.3 hPa | - | - | - | - |
| 1787402170 | 36.11° C | 37% | 1056.1 hPa | - | - | - | - |
* Rain since midnight (hover to see other rain measurements)
** Current wind speed in m/s (hover to see current wind gust speed)